Montgomery Regional (Dannelly Field) Airport
KMGM : rendu visible

Aérodrome :











RETROUVEZ-NOUS SUR...

 
LOGIN :

S'inscrire | Disclaimer

   EN    FR    IT 

 









Légende :    VFR   VFR Marginal   IFR   IFR Intensif   IFR Très Intensif
Visi : 
Plafond : 
>= 8 km
>= 3000ft
5 à 8 km
1000 à 3000 ft
1500m à 5 km
500 à 1000 ft
800 à 1500m
200 à 500 ft
< 800m
< 200 ft
Symboles :   Orages  Brouillard  Fortes neiges  Fortes précipitations  Vent > 20 kt






- Altitude de l'aérodrome : 221 ft
- Code IATA : MGM


KMGM - Montgomery Regional (Dannelly Field)

DERNIER METAR :
  • 280753Z 16003KT 10SM OVC015 23/21 A2988 RMK AO2 SLP115 T02330211

METARs EXPIRÉS :
  • 280653Z 16004KT 10SM OVC015 24/21 A2989 RMK AO2 SLP117 T02390211
  • 280553Z 15006KT 10SM OVC015 24/21 A2989 RMK AO2 SLP118 T02390211 10261 20233 403110206 56004
  • 280550Z 15007KT 10SM OVC015 24/21 A2989 RMK AO2
  • 280528Z 15006KT 10SM OVC014 24/21 A2990 RMK AO2 T02390211

TAF KMGM
Valide du 28 à 06h jusqu'au 29 à 06h UTC


280540Z 2806/2906 15006KT P6SM OVC014
FM281500 20005KT P6SM OVC025
PROB30 2821/2824 4SM TSRA BR OVC025CB
FM290000 23007KT P6SM SHRA BKN045
PROB30 2900/2901 4SM TSRA BR OVC025CB
FM290100 31008KT P6SM SHRA BKN023
PROB30 2901/2903 4SM TSRA BR OVC015CB
FM290300 34008KT P6SM SHRA BKN010
PROB30 2903/2906 4SM TSRA BR OVC008CB AMD NOT SKED
FIR KZTL / Amérique du Nord



MET'MAP, la Météo Aéronautique d'un coup d'oeil ! - Copyright ORBIFLY Décembre 2007 - Disclaimer

ORBIFLY MET'MAP TEAM :

Programmation & Développement : Alexandra Zaïnal
Sur une idée originale de : Baudouin d'Aumeries
Assistance à la programmation : Marc-Olivier Méhu
Soutien technique & logistique : Manuel Goepfert

Contact : metmap@orbifly.com




SOURCES & CREDITS :

   NOAA       Earth
Advisory